sensor_id;sensor_type;location;lat;lon;timestamp;temperature;humidity
13673;DHT22;6909;52.202;9.876;2023-06-24T00:00:39;13.10;99.90
13673;DHT22;6909;52.202;9.876;2023-06-24T00:03:06;12.90;99.90
13673;DHT22;6909;52.202;9.876;2023-06-24T00:05:33;12.90;99.90
13673;DHT22;6909;52.202;9.876;2023-06-24T00:07:59;12.80;99.90
13673;DHT22;6909;52.202;9.876;2023-06-24T00:10:30;12.80;99.90
13673;DHT22;6909;52.202;9.876;2023-06-24T00:12:56;12.70;99.90
13673;DHT22;6909;52.202;9.876;2023-06-24T00:15:26;12.70;99.90
13673;DHT22;6909;52.202;9.876;2023-06-24T00:17:53;12.70;99.90
13673;DHT22;6909;52.202;9.876;2023-06-24T00:20:25;12.70;99.90
13673;DHT22;6909;52.202;9.876;2023-06-24T00:22:51;12.70;99.90
13673;DHT22;6909;52.202;9.876;2023-06-24T00:25:18;12.80;99.90
13673;DHT22;6909;52.202;9.876;2023-06-24T00:27:46;12.90;99.90
13673;DHT22;6909;52.202;9.876;2023-06-24T00:30:13;12.90;99.90
13673;DHT22;6909;52.202;9.876;2023-06-24T00:32:40;12.90;99.90
13673;DHT22;6909;52.202;9.876;2023-06-24T00:35:07;13.00;99.90
13673;DHT22;6909;52.202;9.876;2023-06-24T00:37:34;12.80;99.90
13673;DHT22;6909;52.202;9.876;2023-06-24T00:40:01;12.80;99.90
13673;DHT22;6909;52.202;9.876;2023-06-24T00:42:29;12.70;99.90
13673;DHT22;6909;52.202;9.876;2023-06-24T00:44:57;12.50;99.90
13673;DHT22;6909;52.202;9.876;2023-06-24T00:47:23;12.50;99.90
13673;DHT22;6909;52.202;9.876;2023-06-24T00:49:51;12.40;99.90
13673;DHT22;6909;52.202;9.876;2023-06-24T00:52:17;12.40;99.90
13673;DHT22;6909;52.202;9.876;2023-06-24T00:54:44;12.30;99.90
13673;DHT22;6909;52.202;9.876;2023-06-24T00:57:12;12.40;99.90
13673;DHT22;6909;52.202;9.876;2023-06-24T00:59:40;12.40;99.90
13673;DHT22;6909;52.202;9.876;2023-06-24T01:02:10;12.40;99.90
13673;DHT22;6909;52.202;9.876;2023-06-24T01:04:37;12.40;99.90
13673;DHT22;6909;52.202;9.876;2023-06-24T01:07:05;12.40;99.90
13673;DHT22;6909;52.202;9.876;2023-06-24T01:09:32;12.50;99.90
13673;DHT22;6909;52.202;9.876;2023-06-24T01:11:59;12.50;99.90
13673;DHT22;6909;52.202;9.876;2023-06-24T01:14:25;12.50;99.90
13673;DHT22;6909;52.202;9.876;2023-06-24T01:16:56;12.50;99.90
13673;DHT22;6909;52.202;9.876;2023-06-24T01:19:42;12.50;99.90
13673;DHT22;6909;52.202;9.876;2023-06-24T01:22:23;12.50;99.90
13673;DHT22;6909;52.202;9.876;2023-06-24T01:25:07;12.60;99.90
13673;DHT22;6909;52.202;9.876;2023-06-24T01:27:57;12.60;99.90
13673;DHT22;6909;52.202;9.876;2023-06-24T01:33:41;12.50;99.90
13673;DHT22;6909;52.202;9.876;2023-06-24T01:36:11;12.60;99.90
13673;DHT22;6909;52.202;9.876;2023-06-24T01:38:43;12.80;99.90
13673;DHT22;6909;52.202;9.876;2023-06-24T01:41:14;12.90;99.90
13673;DHT22;6909;52.202;9.876;2023-06-24T01:43:43;12.80;99.90
13673;DHT22;6909;52.202;9.876;2023-06-24T01:46:11;12.80;99.90
13673;DHT22;6909;52.202;9.876;2023-06-24T01:48:43;12.80;99.90
13673;DHT22;6909;52.202;9.876;2023-06-24T01:51:12;12.80;99.90
13673;DHT22;6909;52.202;9.876;2023-06-24T01:53:49;12.80;99.90
13673;DHT22;6909;52.202;9.876;2023-06-24T01:56:19;12.80;99.90
13673;DHT22;6909;52.202;9.876;2023-06-24T01:58:48;12.80;99.90
13673;DHT22;6909;52.202;9.876;2023-06-24T02:01:17;12.90;99.90
13673;DHT22;6909;52.202;9.876;2023-06-24T02:03:47;13.00;99.90
13673;DHT22;6909;52.202;9.876;2023-06-24T02:06:15;13.00;99.90
13673;DHT22;6909;52.202;9.876;2023-06-24T02:08:43;13.10;99.90
13673;DHT22;6909;52.202;9.876;2023-06-24T02:11:10;13.20;99.90
13673;DHT22;6909;52.202;9.876;2023-06-24T02:13:39;13.10;99.90
13673;DHT22;6909;52.202;9.876;2023-06-24T02:16:08;12.90;99.90
13673;DHT22;6909;52.202;9.876;2023-06-24T02:18:37;12.90;99.90
13673;DHT22;6909;52.202;9.876;2023-06-24T02:21:09;12.90;99.90
13673;DHT22;6909;52.202;9.876;2023-06-24T02:23:36;12.80;99.90
13673;DHT22;6909;52.202;9.876;2023-06-24T02:26:04;12.70;99.90
13673;DHT22;6909;52.202;9.876;2023-06-24T02:28:32;12.70;99.90
13673;DHT22;6909;52.202;9.876;2023-06-24T02:30:59;12.70;99.90
13673;DHT22;6909;52.202;9.876;2023-06-24T02:33:27;12.70;99.90
13673;DHT22;6909;52.202;9.876;2023-06-24T02:35:53;12.70;99.90
13673;DHT22;6909;52.202;9.876;2023-06-24T02:38:22;12.60;99.90
13673;DHT22;6909;52.202;9.876;2023-06-24T02:40:49;12.50;99.90
13673;DHT22;6909;52.202;9.876;2023-06-24T02:43:18;12.40;99.90
13673;DHT22;6909;52.202;9.876;2023-06-24T02:45:45;12.30;99.90
13673;DHT22;6909;52.202;9.876;2023-06-24T02:48:14;12.30;99.90
13673;DHT22;6909;52.202;9.876;2023-06-24T02:50:41;12.20;99.90
13673;DHT22;6909;52.202;9.876;2023-06-24T02:53:10;12.10;99.90
13673;DHT22;6909;52.202;9.876;2023-06-24T02:55:40;12.10;99.90
13673;DHT22;6909;52.202;9.876;2023-06-24T02:58:08;12.00;99.90
13673;DHT22;6909;52.202;9.876;2023-06-24T03:00:35;12.00;99.90
13673;DHT22;6909;52.202;9.876;2023-06-24T03:03:03;12.00;99.90
13673;DHT22;6909;52.202;9.876;2023-06-24T03:05:31;11.90;99.90
13673;DHT22;6909;52.202;9.876;2023-06-24T03:07:59;11.90;99.90
13673;DHT22;6909;52.202;9.876;2023-06-24T03:10:29;11.90;99.90
13673;DHT22;6909;52.202;9.876;2023-06-24T03:12:57;11.90;99.90
13673;DHT22;6909;52.202;9.876;2023-06-24T03:15:24;11.90;99.90
13673;DHT22;6909;52.202;9.876;2023-06-24T03:17:51;12.00;99.90
13673;DHT22;6909;52.202;9.876;2023-06-24T03:20:18;12.00;99.90
13673;DHT22;6909;52.202;9.876;2023-06-24T03:22:45;12.10;99.90
13673;DHT22;6909;52.202;9.876;2023-06-24T03:25:12;12.10;99.90
13673;DHT22;6909;52.202;9.876;2023-06-24T03:27:38;12.10;99.90
13673;DHT22;6909;52.202;9.876;2023-06-24T03:30:08;12.10;99.90
13673;DHT22;6909;52.202;9.876;2023-06-24T03:32:35;12.20;99.90
13673;DHT22;6909;52.202;9.876;2023-06-24T03:35:02;12.10;99.90
13673;DHT22;6909;52.202;9.876;2023-06-24T03:37:29;12.20;99.90
13673;DHT22;6909;52.202;9.876;2023-06-24T03:39:56;12.20;99.90
13673;DHT22;6909;52.202;9.876;2023-06-24T03:42:23;12.20;99.90
13673;DHT22;6909;52.202;9.876;2023-06-24T03:44:50;12.20;99.90
13673;DHT22;6909;52.202;9.876;2023-06-24T03:47:17;12.20;99.90
13673;DHT22;6909;52.202;9.876;2023-06-24T03:49:44;12.30;99.90
13673;DHT22;6909;52.202;9.876;2023-06-24T03:52:11;12.40;99.90
13673;DHT22;6909;52.202;9.876;2023-06-24T03:54:37;12.30;99.90
13673;DHT22;6909;52.202;9.876;2023-06-24T03:57:06;12.40;99.90
13673;DHT22;6909;52.202;9.876;2023-06-24T03:59:33;12.40;99.90
13673;DHT22;6909;52.202;9.876;2023-06-24T04:02:00;12.60;99.90
13673;DHT22;6909;52.202;9.876;2023-06-24T04:04:28;12.60;99.90
13673;DHT22;6909;52.202;9.876;2023-06-24T04:06:54;12.60;99.90
13673;DHT22;6909;52.202;9.876;2023-06-24T04:09:21;12.70;99.90
13673;DHT22;6909;52.202;9.876;2023-06-24T04:11:48;12.80;99.90
13673;DHT22;6909;52.202;9.876;2023-06-24T04:14:15;12.80;99.90
13673;DHT22;6909;52.202;9.876;2023-06-24T04:16:42;12.80;99.90
13673;DHT22;6909;52.202;9.876;2023-06-24T04:19:08;12.90;99.90
13673;DHT22;6909;52.202;9.876;2023-06-24T04:21:37;13.00;99.90
13673;DHT22;6909;52.202;9.876;2023-06-24T04:24:04;13.20;99.90
13673;DHT22;6909;52.202;9.876;2023-06-24T04:26:31;13.80;99.90
13673;DHT22;6909;52.202;9.876;2023-06-24T04:28:57;15.00;99.90
13673;DHT22;6909;52.202;9.876;2023-06-24T04:31:24;16.40;99.90
13673;DHT22;6909;52.202;9.876;2023-06-24T04:33:51;17.20;99.90
13673;DHT22;6909;52.202;9.876;2023-06-24T04:36:17;18.40;99.90
13673;DHT22;6909;52.202;9.876;2023-06-24T04:38:45;19.40;1.00
13673;DHT22;6909;52.202;9.876;2023-06-24T04:41:12;20.00;91.90
13673;DHT22;6909;52.202;9.876;2023-06-24T04:43:39;20.50;99.90
13673;DHT22;6909;52.202;9.876;2023-06-24T04:46:05;21.60;91.40
13673;DHT22;6909;52.202;9.876;2023-06-24T04:48:32;22.30;99.90
13673;DHT22;6909;52.202;9.876;2023-06-24T04:50:58;22.40;1.00
13673;DHT22;6909;52.202;9.876;2023-06-24T04:53:25;22.40;62.40
13673;DHT22;6909;52.202;9.876;2023-06-24T04:55:53;22.90;1.00
13673;DHT22;6909;52.202;9.876;2023-06-24T04:58:20;22.70;1.00
13673;DHT22;6909;52.202;9.876;2023-06-24T05:00:47;22.40;99.90
13673;DHT22;6909;52.202;9.876;2023-06-24T05:03:13;22.40;1.00
13673;DHT22;6909;52.202;9.876;2023-06-24T05:05:40;22.80;1.00
13673;DHT22;6909;52.202;9.876;2023-06-24T05:08:07;22.90;1.00
13673;DHT22;6909;52.202;9.876;2023-06-24T05:10:33;23.40;99.90
13673;DHT22;6909;52.202;9.876;2023-06-24T05:13:01;22.90;99.90
13673;DHT22;6909;52.202;9.876;2023-06-24T05:15:28;22.60;99.90
13673;DHT22;6909;52.202;9.876;2023-06-24T05:17:55;22.30;99.90
13673;DHT22;6909;52.202;9.876;2023-06-24T05:20:22;23.20;1.00
13673;DHT22;6909;52.202;9.876;2023-06-24T05:22:48;23.50;1.00
13673;DHT22;6909;52.202;9.876;2023-06-24T05:25:15;23.80;1.00
13673;DHT22;6909;52.202;9.876;2023-06-24T05:27:41;23.10;1.00
13673;DHT22;6909;52.202;9.876;2023-06-24T05:30:12;23.80;1.00
13673;DHT22;6909;52.202;9.876;2023-06-24T05:32:39;24.10;99.90
13673;DHT22;6909;52.202;9.876;2023-06-24T05:35:07;24.80;99.90
13673;DHT22;6909;52.202;9.876;2023-06-24T05:37:33;25.50;99.90
13673;DHT22;6909;52.202;9.876;2023-06-24T05:40:01;25.00;99.90
13673;DHT22;6909;52.202;9.876;2023-06-24T05:42:30;24.70;99.90
13673;DHT22;6909;52.202;9.876;2023-06-24T05:44:56;23.60;99.90
13673;DHT22;6909;52.202;9.876;2023-06-24T05:47:24;24.20;99.90
13673;DHT22;6909;52.202;9.876;2023-06-24T05:49:51;25.20;99.90
13673;DHT22;6909;52.202;9.876;2023-06-24T05:52:18;26.10;12.70
13673;DHT22;6909;52.202;9.876;2023-06-24T05:54:44;25.60;99.90
13673;DHT22;6909;52.202;9.876;2023-06-24T05:57:11;25.80;7.00
13673;DHT22;6909;52.202;9.876;2023-06-24T05:59:38;26.60;1.00
13673;DHT22;6909;52.202;9.876;2023-06-24T06:02:05;27.30;1.00
13673;DHT22;6909;52.202;9.876;2023-06-24T06:04:33;27.60;1.00
13673;DHT22;6909;52.202;9.876;2023-06-24T06:07:00;27.50;1.00
13673;DHT22;6909;52.202;9.876;2023-06-24T06:09:26;27.60;1.00
13673;DHT22;6909;52.202;9.876;2023-06-24T06:11:53;27.40;1.00
13673;DHT22;6909;52.202;9.876;2023-06-24T06:14:19;27.70;1.00
13673;DHT22;6909;52.202;9.876;2023-06-24T06:16:46;28.50;1.00
13673;DHT22;6909;52.202;9.876;2023-06-24T06:19:13;27.30;1.00
13673;DHT22;6909;52.202;9.876;2023-06-24T06:21:41;27.70;1.00
13673;DHT22;6909;52.202;9.876;2023-06-24T06:24:07;28.40;1.00
13673;DHT22;6909;52.202;9.876;2023-06-24T06:26:34;28.70;1.00
13673;DHT22;6909;52.202;9.876;2023-06-24T06:29:01;28.30;1.00
13673;DHT22;6909;52.202;9.876;2023-06-24T06:31:28;28.20;1.00
13673;DHT22;6909;52.202;9.876;2023-06-24T06:33:54;28.30;1.00
13673;DHT22;6909;52.202;9.876;2023-06-24T06:36:21;28.40;1.00
13673;DHT22;6909;52.202;9.876;2023-06-24T06:38:49;28.40;1.00
13673;DHT22;6909;52.202;9.876;2023-06-24T06:41:15;28.70;1.00
13673;DHT22;6909;52.202;9.876;2023-06-24T06:43:43;29.50;1.00
13673;DHT22;6909;52.202;9.876;2023-06-24T06:46:09;30.30;1.00
13673;DHT22;6909;52.202;9.876;2023-06-24T06:48:36;30.80;1.00
13673;DHT22;6909;52.202;9.876;2023-06-24T06:51:03;30.20;1.00
13673;DHT22;6909;52.202;9.876;2023-06-24T06:53:29;30.00;1.00
13673;DHT22;6909;52.202;9.876;2023-06-24T06:55:57;30.40;1.00
13673;DHT22;6909;52.202;9.876;2023-06-24T06:58:24;30.40;1.00
13673;DHT22;6909;52.202;9.876;2023-06-24T07:00:51;30.30;1.00
13673;DHT22;6909;52.202;9.876;2023-06-24T07:03:17;30.10;1.00
13673;DHT22;6909;52.202;9.876;2023-06-24T07:05:44;30.40;1.00
13673;DHT22;6909;52.202;9.876;2023-06-24T07:08:11;29.90;1.00
13673;DHT22;6909;52.202;9.876;2023-06-24T07:10:38;30.70;1.00
13673;DHT22;6909;52.202;9.876;2023-06-24T07:13:06;31.20;1.00
13673;DHT22;6909;52.202;9.876;2023-06-24T07:15:33;32.00;1.00
13673;DHT22;6909;52.202;9.876;2023-06-24T07:17:59;32.80;1.00
13673;DHT22;6909;52.202;9.876;2023-06-24T07:20:26;31.10;1.00
13673;DHT22;6909;52.202;9.876;2023-06-24T07:22:53;31.10;1.00
13673;DHT22;6909;52.202;9.876;2023-06-24T07:25:19;31.50;1.00
13673;DHT22;6909;52.202;9.876;2023-06-24T07:27:46;31.50;1.00
13673;DHT22;6909;52.202;9.876;2023-06-24T07:30:14;33.20;1.00
13673;DHT22;6909;52.202;9.876;2023-06-24T07:32:41;33.40;1.00
13673;DHT22;6909;52.202;9.876;2023-06-24T07:35:08;32.10;1.00
13673;DHT22;6909;52.202;9.876;2023-06-24T07:37:35;32.80;1.00
13673;DHT22;6909;52.202;9.876;2023-06-24T07:40:05;33.10;1.00
13673;DHT22;6909;52.202;9.876;2023-06-24T07:42:34;33.30;1.00
13673;DHT22;6909;52.202;9.876;2023-06-24T07:45:00;32.60;1.00
13673;DHT22;6909;52.202;9.876;2023-06-24T07:47:28;32.30;1.00
13673;DHT22;6909;52.202;9.876;2023-06-24T07:49:57;31.90;1.00
13673;DHT22;6909;52.202;9.876;2023-06-24T07:52:24;32.70;1.00
13673;DHT22;6909;52.202;9.876;2023-06-24T07:54:50;32.80;1.00
13673;DHT22;6909;52.202;9.876;2023-06-24T07:57:17;32.30;1.00
13673;DHT22;6909;52.202;9.876;2023-06-24T07:59:44;31.90;1.00
13673;DHT22;6909;52.202;9.876;2023-06-24T08:02:10;31.80;1.00
13673;DHT22;6909;52.202;9.876;2023-06-24T08:04:38;31.20;1.00
13673;DHT22;6909;52.202;9.876;2023-06-24T08:07:05;31.00;1.00
13673;DHT22;6909;52.202;9.876;2023-06-24T08:09:32;30.60;1.00
13673;DHT22;6909;52.202;9.876;2023-06-24T08:11:59;30.50;1.00
13673;DHT22;6909;52.202;9.876;2023-06-24T08:14:25;31.80;1.00
13673;DHT22;6909;52.202;9.876;2023-06-24T08:16:52;30.90;1.00
13673;DHT22;6909;52.202;9.876;2023-06-24T08:19:18;30.60;1.00
13673;DHT22;6909;52.202;9.876;2023-06-24T08:21:46;30.70;1.00
13673;DHT22;6909;52.202;9.876;2023-06-24T08:24:13;30.80;1.00
13673;DHT22;6909;52.202;9.876;2023-06-24T08:26:40;31.00;1.00
13673;DHT22;6909;52.202;9.876;2023-06-24T08:29:06;30.70;1.00
13673;DHT22;6909;52.202;9.876;2023-06-24T08:31:33;31.20;1.00
13673;DHT22;6909;52.202;9.876;2023-06-24T08:34:00;32.00;1.00
13673;DHT22;6909;52.202;9.876;2023-06-24T08:36:28;32.30;1.00
13673;DHT22;6909;52.202;9.876;2023-06-24T08:38:56;32.30;1.00
13673;DHT22;6909;52.202;9.876;2023-06-24T08:41:24;32.20;1.00
13673;DHT22;6909;52.202;9.876;2023-06-24T08:43:51;32.30;1.00
13673;DHT22;6909;52.202;9.876;2023-06-24T08:46:19;32.90;1.00
13673;DHT22;6909;52.202;9.876;2023-06-24T08:48:48;32.30;1.00
13673;DHT22;6909;52.202;9.876;2023-06-24T08:51:18;30.60;1.00
13673;DHT22;6909;52.202;9.876;2023-06-24T08:53:45;31.00;1.00
13673;DHT22;6909;52.202;9.876;2023-06-24T08:56:15;31.20;1.00
13673;DHT22;6909;52.202;9.876;2023-06-24T08:58:43;31.00;1.00
13673;DHT22;6909;52.202;9.876;2023-06-24T09:01:09;30.30;1.00
13673;DHT22;6909;52.202;9.876;2023-06-24T09:03:36;30.20;1.00
13673;DHT22;6909;52.202;9.876;2023-06-24T09:06:03;29.80;1.00
13673;DHT22;6909;52.202;9.876;2023-06-24T09:08:30;28.90;1.00
13673;DHT22;6909;52.202;9.876;2023-06-24T09:10:57;28.70;1.00
13673;DHT22;6909;52.202;9.876;2023-06-24T09:13:34;27.20;1.00
13673;DHT22;6909;52.202;9.876;2023-06-24T09:16:11;26.60;1.00
13673;DHT22;6909;52.202;9.876;2023-06-24T09:18:38;26.50;1.00
13673;DHT22;6909;52.202;9.876;2023-06-24T09:21:04;26.00;1.00
13673;DHT22;6909;52.202;9.876;2023-06-24T09:23:35;25.60;1.00
13673;DHT22;6909;52.202;9.876;2023-06-24T09:26:02;25.70;1.00
13673;DHT22;6909;52.202;9.876;2023-06-24T09:28:30;25.50;1.00
13673;DHT22;6909;52.202;9.876;2023-06-24T09:31:06;25.30;1.00
13673;DHT22;6909;52.202;9.876;2023-06-24T09:33:33;25.40;1.00
13673;DHT22;6909;52.202;9.876;2023-06-24T09:36:02;25.30;1.00
13673;DHT22;6909;52.202;9.876;2023-06-24T09:38:34;25.20;1.00
13673;DHT22;6909;52.202;9.876;2023-06-24T09:41:02;25.00;1.00
13673;DHT22;6909;52.202;9.876;2023-06-24T09:43:33;25.00;1.00
13673;DHT22;6909;52.202;9.876;2023-06-24T09:46:01;25.20;1.00
13673;DHT22;6909;52.202;9.876;2023-06-24T09:48:28;25.30;1.00
13673;DHT22;6909;52.202;9.876;2023-06-24T09:50:55;25.40;1.00
13673;DHT22;6909;52.202;9.876;2023-06-24T09:53:23;25.50;1.00
13673;DHT22;6909;52.202;9.876;2023-06-24T09:55:50;25.50;1.00
13673;DHT22;6909;52.202;9.876;2023-06-24T09:58:18;25.10;1.00
13673;DHT22;6909;52.202;9.876;2023-06-24T10:00:47;25.20;1.00
13673;DHT22;6909;52.202;9.876;2023-06-24T10:03:14;25.10;1.00
13673;DHT22;6909;52.202;9.876;2023-06-24T10:05:41;25.10;1.00
13673;DHT22;6909;52.202;9.876;2023-06-24T10:08:09;25.00;1.00
13673;DHT22;6909;52.202;9.876;2023-06-24T10:10:36;24.90;1.00
13673;DHT22;6909;52.202;9.876;2023-06-24T10:13:02;24.70;1.00
13673;DHT22;6909;52.202;9.876;2023-06-24T10:15:29;24.80;1.00
13673;DHT22;6909;52.202;9.876;2023-06-24T10:18:01;24.70;1.00
13673;DHT22;6909;52.202;9.876;2023-06-24T10:20:28;24.90;1.00
13673;DHT22;6909;52.202;9.876;2023-06-24T10:22:54;25.00;1.00
13673;DHT22;6909;52.202;9.876;2023-06-24T10:25:23;24.80;1.00
13673;DHT22;6909;52.202;9.876;2023-06-24T10:27:53;24.50;1.00
13673;DHT22;6909;52.202;9.876;2023-06-24T10:30:21;24.60;1.00
13673;DHT22;6909;52.202;9.876;2023-06-24T10:32:52;24.50;1.00
13673;DHT22;6909;52.202;9.876;2023-06-24T10:35:25;24.70;1.00
13673;DHT22;6909;52.202;9.876;2023-06-24T10:37:56;24.70;1.00
13673;DHT22;6909;52.202;9.876;2023-06-24T10:40:37;24.60;1.00
13673;DHT22;6909;52.202;9.876;2023-06-24T10:43:25;24.80;1.00
13673;DHT22;6909;52.202;9.876;2023-06-24T10:45:53;24.70;1.00
13673;DHT22;6909;52.202;9.876;2023-06-24T10:48:19;24.80;1.00
13673;DHT22;6909;52.202;9.876;2023-06-24T10:50:48;25.00;1.00
13673;DHT22;6909;52.202;9.876;2023-06-24T10:53:15;24.80;1.00
13673;DHT22;6909;52.202;9.876;2023-06-24T10:55:44;24.80;1.00
13673;DHT22;6909;52.202;9.876;2023-06-24T10:58:11;24.60;1.00
13673;DHT22;6909;52.202;9.876;2023-06-24T11:00:39;24.60;1.00
13673;DHT22;6909;52.202;9.876;2023-06-24T11:03:10;24.80;1.00
13673;DHT22;6909;52.202;9.876;2023-06-24T11:05:38;24.90;1.00
13673;DHT22;6909;52.202;9.876;2023-06-24T11:08:07;25.00;1.00
13673;DHT22;6909;52.202;9.876;2023-06-24T11:10:41;25.10;1.00
13673;DHT22;6909;52.202;9.876;2023-06-24T11:13:09;25.30;1.00
13673;DHT22;6909;52.202;9.876;2023-06-24T11:15:35;25.90;1.00
13673;DHT22;6909;52.202;9.876;2023-06-24T11:18:02;26.10;1.00
13673;DHT22;6909;52.202;9.876;2023-06-24T11:20:30;26.80;1.00
13673;DHT22;6909;52.202;9.876;2023-06-24T11:22:56;27.50;1.00
13673;DHT22;6909;52.202;9.876;2023-06-24T11:25:24;27.70;1.00
13673;DHT22;6909;52.202;9.876;2023-06-24T11:27:51;27.50;1.00
13673;DHT22;6909;52.202;9.876;2023-06-24T11:30:18;27.40;1.00
13673;DHT22;6909;52.202;9.876;2023-06-24T11:32:45;26.90;1.00
13673;DHT22;6909;52.202;9.876;2023-06-24T11:35:14;26.50;1.00
13673;DHT22;6909;52.202;9.876;2023-06-24T11:37:42;26.20;1.00
13673;DHT22;6909;52.202;9.876;2023-06-24T11:40:10;26.20;1.00
13673;DHT22;6909;52.202;9.876;2023-06-24T11:42:38;25.90;1.00
13673;DHT22;6909;52.202;9.876;2023-06-24T11:45:07;25.90;1.00
13673;DHT22;6909;52.202;9.876;2023-06-24T11:47:35;25.90;1.00
13673;DHT22;6909;52.202;9.876;2023-06-24T11:50:03;26.00;1.00
13673;DHT22;6909;52.202;9.876;2023-06-24T11:52:38;26.10;1.00
13673;DHT22;6909;52.202;9.876;2023-06-24T11:55:12;26.00;1.00
13673;DHT22;6909;52.202;9.876;2023-06-24T11:57:53;25.90;1.00
13673;DHT22;6909;52.202;9.876;2023-06-24T12:00:21;25.90;1.00
13673;DHT22;6909;52.202;9.876;2023-06-24T12:02:56;25.90;1.00
13673;DHT22;6909;52.202;9.876;2023-06-24T12:05:24;25.90;1.00
13673;DHT22;6909;52.202;9.876;2023-06-24T12:07:55;25.90;1.00
13673;DHT22;6909;52.202;9.876;2023-06-24T12:10:22;25.90;1.00
13673;DHT22;6909;52.202;9.876;2023-06-24T12:12:49;25.80;1.00
13673;DHT22;6909;52.202;9.876;2023-06-24T12:15:17;25.60;1.00
13673;DHT22;6909;52.202;9.876;2023-06-24T12:17:43;25.40;1.00
13673;DHT22;6909;52.202;9.876;2023-06-24T12:20:11;25.10;1.00
13673;DHT22;6909;52.202;9.876;2023-06-24T12:22:39;25.00;1.00
13673;DHT22;6909;52.202;9.876;2023-06-24T12:25:07;25.20;1.00
13673;DHT22;6909;52.202;9.876;2023-06-24T12:27:33;25.20;1.00
13673;DHT22;6909;52.202;9.876;2023-06-24T12:30:00;25.10;1.00
13673;DHT22;6909;52.202;9.876;2023-06-24T12:32:28;25.20;1.00
13673;DHT22;6909;52.202;9.876;2023-06-24T12:34:55;25.30;1.00
13673;DHT22;6909;52.202;9.876;2023-06-24T12:37:22;25.40;1.00
13673;DHT22;6909;52.202;9.876;2023-06-24T12:39:49;25.50;1.00
13673;DHT22;6909;52.202;9.876;2023-06-24T12:42:16;25.80;1.00
13673;DHT22;6909;52.202;9.876;2023-06-24T12:44:43;25.90;1.00
13673;DHT22;6909;52.202;9.876;2023-06-24T12:47:09;25.60;1.00
13673;DHT22;6909;52.202;9.876;2023-06-24T12:49:37;25.60;1.00
13673;DHT22;6909;52.202;9.876;2023-06-24T12:52:04;25.60;1.00
13673;DHT22;6909;52.202;9.876;2023-06-24T12:54:31;25.70;1.00
13673;DHT22;6909;52.202;9.876;2023-06-24T12:56:57;25.70;1.00
13673;DHT22;6909;52.202;9.876;2023-06-24T12:59:24;25.40;1.00
13673;DHT22;6909;52.202;9.876;2023-06-24T13:01:51;25.30;1.00
13673;DHT22;6909;52.202;9.876;2023-06-24T13:04:17;25.20;1.00
13673;DHT22;6909;52.202;9.876;2023-06-24T13:06:48;25.10;1.00
13673;DHT22;6909;52.202;9.876;2023-06-24T13:09:14;25.50;1.00
13673;DHT22;6909;52.202;9.876;2023-06-24T13:11:44;25.70;1.00
13673;DHT22;6909;52.202;9.876;2023-06-24T13:14:11;25.80;1.00
13673;DHT22;6909;52.202;9.876;2023-06-24T13:16:38;25.90;1.00
13673;DHT22;6909;52.202;9.876;2023-06-24T13:19:05;25.70;1.00
13673;DHT22;6909;52.202;9.876;2023-06-24T13:21:32;25.70;1.00
13673;DHT22;6909;52.202;9.876;2023-06-24T13:24:00;25.80;1.00
13673;DHT22;6909;52.202;9.876;2023-06-24T13:26:26;25.70;1.00
13673;DHT22;6909;52.202;9.876;2023-06-24T13:28:53;25.90;1.00
13673;DHT22;6909;52.202;9.876;2023-06-24T13:31:20;26.00;1.00
13673;DHT22;6909;52.202;9.876;2023-06-24T13:33:47;25.70;1.00
13673;DHT22;6909;52.202;9.876;2023-06-24T13:36:31;25.80;1.00
13673;DHT22;6909;52.202;9.876;2023-06-24T13:38:59;25.90;1.00
13673;DHT22;6909;52.202;9.876;2023-06-24T13:41:26;25.90;1.00
13673;DHT22;6909;52.202;9.876;2023-06-24T13:43:55;26.00;1.00
13673;DHT22;6909;52.202;9.876;2023-06-24T13:46:22;26.20;1.00
13673;DHT22;6909;52.202;9.876;2023-06-24T13:48:49;26.30;1.00
13673;DHT22;6909;52.202;9.876;2023-06-24T13:51:16;26.20;1.00
13673;DHT22;6909;52.202;9.876;2023-06-24T13:53:42;26.10;1.00
13673;DHT22;6909;52.202;9.876;2023-06-24T13:56:10;26.10;1.00
13673;DHT22;6909;52.202;9.876;2023-06-24T13:58:37;26.20;1.00
13673;DHT22;6909;52.202;9.876;2023-06-24T14:01:04;26.30;1.00
13673;DHT22;6909;52.202;9.876;2023-06-24T14:03:30;26.20;1.00
13673;DHT22;6909;52.202;9.876;2023-06-24T14:05:57;26.00;1.00
13673;DHT22;6909;52.202;9.876;2023-06-24T14:08:26;25.70;1.00
13673;DHT22;6909;52.202;9.876;2023-06-24T14:10:54;25.80;1.00
13673;DHT22;6909;52.202;9.876;2023-06-24T14:13:22;25.90;1.00
13673;DHT22;6909;52.202;9.876;2023-06-24T14:15:49;25.80;1.00
13673;DHT22;6909;52.202;9.876;2023-06-24T14:18:16;25.70;1.00
13673;DHT22;6909;52.202;9.876;2023-06-24T14:20:42;25.70;1.00
13673;DHT22;6909;52.202;9.876;2023-06-24T14:23:09;25.70;1.00
13673;DHT22;6909;52.202;9.876;2023-06-24T14:25:36;25.70;1.00
13673;DHT22;6909;52.202;9.876;2023-06-24T14:28:03;25.60;1.00
13673;DHT22;6909;52.202;9.876;2023-06-24T14:30:31;25.50;1.00
13673;DHT22;6909;52.202;9.876;2023-06-24T14:32:58;25.10;1.00
13673;DHT22;6909;52.202;9.876;2023-06-24T14:35:24;25.20;1.00
13673;DHT22;6909;52.202;9.876;2023-06-24T14:37:51;25.30;1.00
13673;DHT22;6909;52.202;9.876;2023-06-24T14:40:19;25.10;1.00
13673;DHT22;6909;52.202;9.876;2023-06-24T14:42:45;25.10;1.00
13673;DHT22;6909;52.202;9.876;2023-06-24T14:45:12;25.10;1.00
13673;DHT22;6909;52.202;9.876;2023-06-24T14:47:41;25.20;1.00
13673;DHT22;6909;52.202;9.876;2023-06-24T14:50:07;25.30;1.00
13673;DHT22;6909;52.202;9.876;2023-06-24T14:52:34;25.20;1.00
13673;DHT22;6909;52.202;9.876;2023-06-24T14:55:01;25.20;1.00
13673;DHT22;6909;52.202;9.876;2023-06-24T14:57:27;25.30;1.00
13673;DHT22;6909;52.202;9.876;2023-06-24T14:59:54;25.30;1.00
13673;DHT22;6909;52.202;9.876;2023-06-24T15:02:21;25.40;1.00
13673;DHT22;6909;52.202;9.876;2023-06-24T15:04:49;25.40;1.00
13673;DHT22;6909;52.202;9.876;2023-06-24T15:07:16;25.40;1.00
13673;DHT22;6909;52.202;9.876;2023-06-24T15:09:42;25.40;1.00
13673;DHT22;6909;52.202;9.876;2023-06-24T15:12:10;25.30;1.00
13673;DHT22;6909;52.202;9.876;2023-06-24T15:14:36;25.40;1.00
13673;DHT22;6909;52.202;9.876;2023-06-24T15:17:04;25.20;1.00
13673;DHT22;6909;52.202;9.876;2023-06-24T15:19:31;25.10;1.00
13673;DHT22;6909;52.202;9.876;2023-06-24T15:21:59;25.20;1.00
13673;DHT22;6909;52.202;9.876;2023-06-24T15:24:26;25.20;1.00
13673;DHT22;6909;52.202;9.876;2023-06-24T15:26:53;25.30;1.00
13673;DHT22;6909;52.202;9.876;2023-06-24T15:29:19;25.10;1.00
13673;DHT22;6909;52.202;9.876;2023-06-24T15:31:46;25.20;1.00
13673;DHT22;6909;52.202;9.876;2023-06-24T15:34:13;25.10;1.00
13673;DHT22;6909;52.202;9.876;2023-06-24T15:36:39;25.00;1.00
13673;DHT22;6909;52.202;9.876;2023-06-24T15:39:08;25.00;1.00
13673;DHT22;6909;52.202;9.876;2023-06-24T15:41:36;25.00;1.00
13673;DHT22;6909;52.202;9.876;2023-06-24T15:44:04;25.00;1.00
13673;DHT22;6909;52.202;9.876;2023-06-24T15:46:31;25.10;1.00
13673;DHT22;6909;52.202;9.876;2023-06-24T15:48:58;25.20;1.00
13673;DHT22;6909;52.202;9.876;2023-06-24T15:51:24;25.10;1.00
13673;DHT22;6909;52.202;9.876;2023-06-24T15:53:51;25.10;1.00
13673;DHT22;6909;52.202;9.876;2023-06-24T15:56:19;25.00;1.00
13673;DHT22;6909;52.202;9.876;2023-06-24T15:58:46;24.90;1.00
13673;DHT22;6909;52.202;9.876;2023-06-24T16:01:13;24.90;1.00
13673;DHT22;6909;52.202;9.876;2023-06-24T16:03:39;24.80;1.00